createdAt,value
2023-01-31T00:01:38.623Z,2.37
2023-01-31T00:04:40.217Z,2.70
2023-01-31T00:07:41.661Z,2.97
2023-01-31T00:10:43.248Z,3.08
2023-01-31T00:13:44.903Z,2.85
2023-01-31T00:16:46.732Z,2.70
2023-01-31T00:19:48.228Z,2.97
2023-01-31T00:22:49.698Z,2.75
2023-01-31T00:25:51.263Z,2.65
2023-01-31T00:28:54.236Z,2.35
2023-01-31T00:31:55.910Z,3.00
2023-01-31T00:34:57.455Z,3.58
2023-01-31T00:38:00.186Z,2.88
2023-01-31T00:44:03.175Z,2.45
2023-01-31T00:47:04.659Z,3.10
2023-01-31T00:50:06.264Z,3.08
2023-01-31T00:53:08.176Z,3.10
2023-01-31T00:56:11.985Z,2.55
2023-01-31T00:59:13.526Z,2.88
2023-01-31T01:02:15.141Z,2.15
2023-01-31T01:05:16.695Z,2.35
2023-01-31T01:08:18.173Z,2.28
2023-01-31T01:11:21.955Z,2.35
2023-01-31T01:14:23.462Z,2.90
2023-01-31T01:17:25.000Z,2.88
2023-01-31T01:20:26.442Z,2.10
2023-01-31T01:23:29.938Z,3.05
2023-01-31T01:26:32.791Z,3.50
2023-01-31T01:29:35.007Z,3.03
2023-01-31T01:32:36.476Z,2.67
2023-01-31T01:35:37.935Z,3.25
2023-01-31T01:38:40.451Z,2.63
2023-01-31T01:41:41.973Z,3.55
2023-01-31T01:44:54.201Z,3.67
2023-01-31T01:47:58.057Z,4.03
2023-01-31T01:50:59.516Z,4.13
2023-01-31T01:54:03.576Z,4.43
2023-01-31T01:57:05.494Z,4.45
2023-01-31T02:00:15.661Z,3.60
2023-01-31T02:03:17.169Z,4.03
2023-01-31T02:06:18.713Z,2.92
2023-01-31T02:09:29.155Z,3.80
2023-01-31T02:12:30.870Z,3.53
2023-01-31T02:15:32.356Z,3.65
2023-01-31T02:18:34.056Z,3.50
2023-01-31T02:21:47.826Z,4.03
2023-01-31T02:25:23.875Z,3.60
2023-01-31T02:28:53.215Z,4.05
2023-01-31T02:32:14.986Z,2.97
2023-01-31T02:35:31.791Z,3.03
2023-01-31T02:39:20.322Z,3.30
2023-01-31T02:42:47.942Z,3.00
2023-01-31T02:45:57.286Z,3.00
2023-01-31T02:49:04.602Z,3.10
2023-01-31T02:52:16.186Z,3.15
2023-01-31T02:56:07.855Z,3.47
2023-01-31T02:59:22.002Z,3.50
2023-01-31T03:02:23.594Z,3.78
2023-01-31T03:05:25.912Z,3.17
2023-01-31T03:08:27.566Z,3.50
2023-01-31T03:12:14.448Z,3.35
2023-01-31T03:15:57.265Z,3.08
2023-01-31T03:19:16.727Z,3.60
2023-01-31T03:22:24.030Z,3.75
2023-01-31T03:25:27.380Z,3.20
2023-01-31T03:28:31.267Z,3.40
2023-01-31T03:31:36.577Z,3.42
2023-01-31T03:34:38.056Z,3.17
2023-01-31T03:38:11.859Z,3.10
2023-01-31T03:41:27.163Z,4.35
2023-01-31T03:44:34.801Z,4.80
2023-01-31T03:47:41.167Z,3.63
2023-01-31T03:50:53.404Z,2.97
2023-01-31T03:54:04.387Z,3.10
2023-01-31T03:57:21.268Z,5.18
2023-01-31T04:00:23.055Z,3.65
2023-01-31T04:03:28.716Z,7.97
2023-01-31T04:06:30.205Z,8.93
2023-01-31T04:09:32.110Z,8.85
2023-01-31T04:12:37.332Z,7.22
2023-01-31T04:15:38.826Z,6.10
2023-01-31T04:18:40.380Z,8.52
2023-01-31T04:21:41.903Z,12.88
2023-01-31T04:24:43.407Z,11.45
2023-01-31T04:27:44.914Z,9.63
2023-01-31T04:30:46.360Z,9.20
2023-01-31T04:33:47.944Z,7.72
2023-01-31T04:36:49.415Z,7.40
2023-01-31T04:39:50.898Z,5.65
2023-01-31T04:42:52.345Z,4.40
2023-01-31T04:45:53.829Z,6.00
2023-01-31T04:48:55.369Z,6.82
2023-01-31T04:51:56.805Z,9.68
2023-01-31T04:54:58.285Z,10.57
2023-01-31T04:57:59.746Z,9.30
2023-01-31T05:01:01.482Z,9.45
2023-01-31T05:04:02.967Z,8.60
2023-01-31T05:07:04.409Z,8.65
2023-01-31T05:10:06.749Z,7.43
2023-01-31T05:13:08.313Z,5.07
2023-01-31T05:16:11.071Z,5.30
2023-01-31T05:19:15.562Z,8.50
2023-01-31T05:22:17.736Z,5.55
2023-01-31T05:25:19.414Z,5.43
2023-01-31T05:28:21.032Z,6.80
2023-01-31T05:31:22.832Z,7.13
2023-01-31T05:34:25.456Z,6.82
2023-01-31T05:37:26.899Z,5.78
2023-01-31T05:40:28.381Z,5.47
2023-01-31T05:43:29.821Z,6.00
2023-01-31T05:46:31.304Z,6.75
2023-01-31T05:49:33.519Z,5.63
2023-01-31T05:52:35.244Z,6.10
2023-01-31T05:55:36.703Z,8.00
2023-01-31T05:58:38.180Z,7.65
2023-01-31T06:01:39.763Z,8.15
2023-01-31T06:04:41.248Z,9.75
2023-01-31T06:07:42.696Z,8.90
2023-01-31T06:10:44.140Z,8.60
2023-01-31T06:13:45.637Z,8.93
2023-01-31T06:16:47.128Z,8.98
2023-01-31T06:19:48.613Z,9.60
2023-01-31T06:22:50.076Z,10.48
2023-01-31T06:25:52.102Z,8.27
2023-01-31T06:28:53.580Z,5.60
2023-01-31T06:31:55.068Z,6.82
2023-01-31T06:34:56.621Z,8.40
2023-01-31T06:37:58.221Z,7.80
2023-01-31T06:40:59.780Z,8.40
2023-01-31T06:44:01.452Z,7.38
2023-01-31T06:47:02.929Z,8.23
2023-01-31T06:50:04.659Z,8.02
2023-01-31T06:53:06.105Z,7.80
2023-01-31T06:56:08.050Z,7.63
2023-01-31T06:59:09.607Z,8.27
2023-01-31T07:02:11.364Z,10.02
2023-01-31T07:05:12.895Z,10.32
2023-01-31T07:08:14.633Z,8.82
2023-01-31T07:11:16.224Z,6.72
2023-01-31T07:14:17.706Z,9.57
2023-01-31T07:17:21.037Z,10.05
2023-01-31T07:20:22.521Z,8.43
2023-01-31T07:23:24.043Z,7.45
2023-01-31T07:26:25.580Z,7.63
2023-01-31T07:29:27.050Z,8.32
2023-01-31T07:32:30.243Z,7.97
2023-01-31T07:35:32.216Z,5.10
2023-01-31T07:38:34.317Z,6.47
2023-01-31T07:41:36.220Z,5.63
2023-01-31T07:44:37.694Z,7.60
2023-01-31T07:47:39.243Z,7.70
2023-01-31T07:50:40.800Z,8.20
2023-01-31T07:53:43.027Z,7.30
2023-01-31T07:56:44.511Z,7.25
2023-01-31T07:59:46.060Z,14.68
2023-01-31T08:03:05.796Z,8.30
2023-01-31T08:06:09.066Z,7.85
2023-01-31T08:09:10.726Z,8.90
2023-01-31T08:12:12.433Z,12.10
2023-01-31T08:15:13.886Z,6.85
2023-01-31T08:18:15.347Z,11.65
2023-01-31T08:21:16.943Z,16.48
2023-01-31T08:24:18.398Z,12.18
2023-01-31T08:27:19.954Z,11.65
2023-01-31T08:30:21.559Z,15.60
2023-01-31T08:33:23.488Z,9.57
2023-01-31T08:36:26.459Z,11.33
2023-01-31T08:39:28.012Z,9.55
2023-01-31T08:42:29.467Z,8.18
2023-01-31T08:45:31.422Z,7.93
2023-01-31T08:48:36.663Z,5.60
2023-01-31T08:51:38.147Z,5.47
2023-01-31T08:54:39.596Z,4.05
2023-01-31T08:57:52.608Z,3.22
2023-01-31T09:01:03.267Z,3.65
2023-01-31T09:04:04.878Z,2.83
2023-01-31T09:07:06.318Z,3.67
2023-01-31T09:10:08.011Z,3.67
2023-01-31T09:13:09.557Z,3.45
2023-01-31T09:16:11.784Z,4.38
2023-01-31T09:19:13.269Z,4.13
2023-01-31T09:22:14.797Z,3.60
2023-01-31T09:25:16.331Z,3.80
2023-01-31T09:28:17.771Z,3.23
2023-01-31T09:31:20.791Z,3.80
2023-01-31T09:34:22.408Z,3.50
2023-01-31T09:37:23.916Z,3.13
2023-01-31T09:40:26.514Z,3.20
2023-01-31T09:43:33.973Z,3.50
2023-01-31T09:46:37.613Z,3.05
2023-01-31T09:49:46.272Z,4.53
2023-01-31T09:52:48.873Z,3.22
2023-01-31T09:56:09.069Z,3.33
2023-01-31T09:59:19.261Z,4.82
2023-01-31T10:02:49.111Z,3.50
2023-01-31T10:06:15.880Z,3.70
2023-01-31T10:09:40.713Z,3.78
2023-01-31T10:12:47.832Z,2.63
2023-01-31T10:15:55.327Z,2.38
2023-01-31T10:19:02.567Z,1.98
2023-01-31T10:22:07.039Z,2.50
2023-01-31T10:25:27.198Z,2.70
2023-01-31T10:28:38.837Z,2.28
2023-01-31T10:31:51.301Z,3.22
2023-01-31T10:35:04.202Z,3.38
2023-01-31T10:38:21.735Z,2.72
2023-01-31T10:41:46.123Z,2.47
2023-01-31T10:44:54.025Z,2.60
2023-01-31T10:48:01.419Z,2.60
2023-01-31T10:51:34.118Z,2.72
2023-01-31T10:54:54.418Z,2.30
2023-01-31T10:57:55.913Z,2.40
2023-01-31T11:00:57.745Z,2.35
2023-01-31T11:04:00.414Z,2.77
2023-01-31T11:10:20.391Z,2.80
2023-01-31T11:13:23.146Z,3.33
2023-01-31T11:16:24.832Z,2.72
2023-01-31T11:19:35.944Z,2.47
2023-01-31T11:22:37.944Z,3.40
2023-01-31T11:25:39.404Z,4.13
2023-01-31T11:28:41.084Z,4.75
2023-01-31T11:31:43.098Z,4.37
2023-01-31T11:35:04.711Z,3.90
2023-01-31T11:38:12.187Z,4.18
2023-01-31T11:41:34.594Z,4.20
2023-01-31T11:44:36.092Z,4.68
2023-01-31T11:47:48.947Z,3.00
2023-01-31T11:54:20.386Z,3.28
2023-01-31T11:57:26.820Z,2.40
2023-01-31T12:00:31.138Z,3.50
2023-01-31T12:03:32.693Z,3.50
2023-01-31T12:06:35.731Z,2.75
2023-01-31T12:09:42.750Z,3.53
2023-01-31T12:12:45.406Z,3.70
2023-01-31T12:19:11.221Z,3.83
2023-01-31T12:22:18.055Z,3.80
2023-01-31T12:25:28.229Z,4.38
2023-01-31T12:28:47.962Z,3.33
2023-01-31T12:32:03.546Z,4.03
2023-01-31T12:35:10.389Z,2.75
2023-01-31T12:38:26.962Z,2.63
2023-01-31T12:41:33.361Z,3.03
2023-01-31T12:44:43.988Z,4.20
2023-01-31T12:48:03.649Z,3.05
2023-01-31T12:51:51.833Z,2.67
2023-01-31T12:55:13.604Z,3.92
2023-01-31T12:58:34.682Z,3.10
2023-01-31T13:02:07.627Z,3.50
2023-01-31T13:05:27.747Z,4.57
2023-01-31T13:08:33.345Z,3.35
2023-01-31T13:11:44.315Z,3.17
2023-01-31T13:15:04.143Z,2.95
2023-01-31T13:18:05.834Z,3.25
2023-01-31T13:21:08.386Z,2.10
2023-01-31T13:27:38.191Z,3.38
2023-01-31T13:30:43.257Z,2.67
2023-01-31T13:33:54.602Z,3.00
2023-01-31T13:37:01.604Z,3.08
2023-01-31T13:40:24.424Z,2.85
2023-01-31T13:43:25.920Z,2.88
2023-01-31T13:46:39.166Z,3.95
2023-01-31T13:49:50.402Z,2.72
2023-01-31T13:52:53.000Z,2.58
2023-01-31T13:58:56.092Z,3.17
2023-01-31T14:01:59.423Z,2.30
2023-01-31T14:05:28.246Z,2.88
2023-01-31T14:08:49.845Z,2.53
2023-01-31T14:11:51.372Z,3.15
2023-01-31T14:14:53.776Z,3.17
2023-01-31T14:17:55.070Z,2.90
2023-01-31T14:20:56.559Z,3.58
2023-01-31T14:23:59.077Z,4.00
2023-01-31T14:27:00.645Z,4.38
2023-01-31T14:30:05.498Z,3.88
2023-01-31T14:33:11.310Z,2.50
2023-01-31T14:36:21.799Z,3.85
2023-01-31T14:39:49.677Z,2.47
2023-01-31T14:43:04.025Z,2.63
2023-01-31T14:46:30.201Z,2.80
2023-01-31T14:49:48.849Z,2.67
2023-01-31T14:52:59.831Z,2.65
2023-01-31T14:56:17.615Z,3.40
2023-01-31T14:59:44.690Z,5.75
2023-01-31T15:02:54.150Z,4.10
2023-01-31T15:05:57.018Z,2.90
2023-01-31T15:09:24.467Z,3.78
2023-01-31T15:12:59.932Z,3.50
2023-01-31T15:16:16.522Z,3.03
2023-01-31T15:19:21.352Z,2.60
2023-01-31T15:22:22.857Z,2.08
2023-01-31T15:25:39.575Z,3.45
2023-01-31T15:28:42.039Z,5.85
2023-01-31T15:31:44.857Z,4.05
2023-01-31T15:34:56.094Z,4.05
2023-01-31T15:38:20.567Z,2.75
2023-01-31T15:41:23.166Z,3.40
2023-01-31T15:47:26.606Z,3.63
2023-01-31T15:50:32.431Z,3.13
2023-01-31T15:53:33.963Z,3.08
2023-01-31T15:56:37.625Z,2.60
2023-01-31T15:59:39.250Z,2.72
2023-01-31T16:02:41.443Z,2.85
2023-01-31T16:05:43.135Z,3.05
2023-01-31T16:08:44.590Z,2.95
2023-01-31T16:11:46.188Z,3.42
2023-01-31T16:14:48.186Z,3.85
2023-01-31T16:17:49.828Z,2.38
2023-01-31T16:20:52.721Z,3.20
2023-01-31T16:24:14.760Z,3.70
2023-01-31T16:27:16.620Z,3.40
2023-01-31T16:30:18.866Z,3.92
2023-01-31T16:33:23.651Z,3.17
2023-01-31T16:36:27.796Z,3.85
2023-01-31T16:39:33.958Z,4.15
2023-01-31T16:42:35.969Z,5.40
2023-01-31T16:45:37.425Z,4.00
2023-01-31T16:48:40.207Z,3.15
2023-01-31T16:51:42.761Z,3.25
2023-01-31T16:54:51.300Z,3.45
2023-01-31T16:57:53.838Z,3.47
2023-01-31T17:00:56.923Z,3.65
2023-01-31T17:04:06.447Z,3.80
2023-01-31T17:07:19.169Z,3.15
2023-01-31T17:10:27.202Z,3.83
2023-01-31T17:13:28.667Z,4.32
2023-01-31T17:16:30.137Z,5.03
2023-01-31T17:19:31.579Z,4.30
2023-01-31T17:22:33.027Z,4.65
2023-01-31T17:25:36.484Z,3.70
2023-01-31T17:28:38.044Z,3.58
2023-01-31T17:31:39.624Z,2.80
2023-01-31T17:34:41.307Z,2.67
2023-01-31T17:37:42.746Z,3.15
2023-01-31T17:40:44.268Z,4.93
2023-01-31T17:43:45.714Z,7.38
2023-01-31T17:46:47.175Z,3.70
2023-01-31T17:49:48.657Z,3.58
2023-01-31T17:52:50.307Z,4.10
2023-01-31T17:55:51.854Z,4.22
2023-01-31T17:58:53.310Z,4.20
2023-01-31T18:01:55.083Z,5.10
2023-01-31T18:04:56.684Z,9.90
2023-01-31T18:07:59.084Z,6.75
2023-01-31T18:11:08.274Z,5.13
2023-01-31T18:14:10.695Z,5.20
2023-01-31T18:17:12.177Z,4.70
2023-01-31T18:20:13.635Z,5.18
2023-01-31T18:23:15.085Z,6.28
2023-01-31T18:26:17.733Z,19.85
2023-01-31T18:32:26.719Z,7.88
2023-01-31T18:35:28.249Z,5.90
2023-01-31T18:38:29.919Z,5.95
2023-01-31T18:41:31.370Z,5.80
2023-01-31T18:44:32.866Z,6.10
2023-01-31T18:47:34.344Z,5.05
2023-01-31T18:50:36.825Z,6.45
2023-01-31T18:53:39.781Z,4.63
2023-01-31T18:56:41.554Z,4.70
2023-01-31T18:59:43.088Z,5.83
2023-01-31T19:02:49.745Z,3.75
2023-01-31T19:05:51.253Z,3.42
2023-01-31T19:08:53.669Z,3.03
2023-01-31T19:11:55.121Z,3.08
2023-01-31T19:14:56.632Z,3.90
2023-01-31T19:17:58.066Z,5.03
2023-01-31T19:20:59.610Z,3.70
2023-01-31T19:24:02.554Z,3.60
2023-01-31T19:27:04.081Z,3.40
2023-01-31T19:30:06.173Z,3.20
2023-01-31T19:33:08.135Z,3.08
2023-01-31T19:36:10.329Z,3.33
2023-01-31T19:39:12.127Z,4.75
2023-01-31T19:42:13.592Z,5.32
2023-01-31T19:45:19.843Z,4.32
2023-01-31T19:48:24.350Z,3.80
2023-01-31T19:51:25.849Z,3.40
2023-01-31T19:54:28.100Z,3.30
2023-01-31T19:57:29.820Z,2.95
2023-01-31T20:00:31.451Z,2.30
2023-01-31T20:03:32.917Z,3.28
2023-01-31T20:06:34.434Z,3.15
2023-01-31T20:09:35.888Z,3.05
2023-01-31T20:12:37.397Z,3.05
2023-01-31T20:15:38.883Z,3.22
2023-01-31T20:18:40.647Z,2.88
2023-01-31T20:21:42.138Z,2.53
2023-01-31T20:24:43.596Z,2.85
2023-01-31T20:27:45.070Z,2.88
2023-01-31T20:30:46.708Z,2.50
2023-01-31T20:33:49.886Z,1.42
2023-01-31T20:36:51.327Z,2.67
2023-01-31T20:39:52.839Z,2.65
2023-01-31T20:42:54.331Z,2.53
2023-01-31T20:46:03.404Z,2.80
2023-01-31T20:49:04.906Z,3.08
2023-01-31T20:52:06.348Z,4.70
2023-01-31T20:55:08.238Z,4.20
2023-01-31T20:58:09.693Z,2.63
2023-01-31T21:01:11.480Z,3.05
2023-01-31T21:04:14.030Z,4.03
2023-01-31T21:07:15.537Z,3.33
2023-01-31T21:10:17.410Z,3.50
2023-01-31T21:13:19.244Z,2.17
2023-01-31T21:16:20.729Z,3.28
2023-01-31T21:19:22.194Z,2.58
2023-01-31T21:22:23.681Z,2.50
2023-01-31T21:25:25.148Z,2.45
2023-01-31T21:28:26.803Z,3.17
2023-01-31T21:31:29.278Z,2.60
2023-01-31T21:37:32.400Z,2.58
2023-01-31T21:40:33.876Z,2.35
2023-01-31T21:43:36.105Z,2.47
2023-01-31T21:46:37.841Z,2.65
2023-01-31T21:49:39.334Z,2.73
2023-01-31T21:52:40.778Z,2.95
2023-01-31T21:55:42.273Z,2.85
2023-01-31T21:58:44.452Z,4.90
2023-01-31T22:01:45.946Z,3.08
2023-01-31T22:04:47.438Z,3.35
2023-01-31T22:07:48.937Z,2.83
2023-01-31T22:10:50.386Z,3.40
2023-01-31T22:13:55.552Z,2.60
2023-01-31T22:16:57.514Z,4.60
2023-01-31T22:19:59.158Z,2.95
2023-01-31T22:23:00.598Z,3.17
2023-01-31T22:26:10.319Z,3.10
2023-01-31T22:29:13.387Z,4.03
2023-01-31T22:32:14.847Z,2.83
2023-01-31T22:35:16.360Z,2.90
2023-01-31T22:38:18.765Z,2.88
2023-01-31T22:41:20.476Z,2.72
2023-01-31T22:44:22.012Z,2.97
2023-01-31T22:47:24.156Z,3.20
2023-01-31T22:50:25.878Z,3.25
2023-01-31T22:53:28.747Z,2.23
2023-01-31T22:56:31.273Z,2.35
2023-01-31T22:59:32.713Z,2.92
2023-01-31T23:02:34.175Z,2.30
2023-01-31T23:05:39.197Z,3.38
2023-01-31T23:08:40.719Z,4.35
2023-01-31T23:11:42.198Z,4.35
2023-01-31T23:14:43.759Z,3.05
2023-01-31T23:17:45.508Z,3.83
2023-01-31T23:20:46.956Z,2.83
2023-01-31T23:23:48.453Z,4.15
2023-01-31T23:26:50.051Z,3.00
2023-01-31T23:29:51.519Z,2.58
2023-01-31T23:32:53.220Z,2.95
2023-01-31T23:35:54.727Z,2.63
2023-01-31T23:38:56.229Z,3.25
2023-01-31T23:41:57.731Z,4.03
2023-01-31T23:44:59.205Z,3.78
2023-01-31T23:48:00.682Z,4.22
2023-01-31T23:51:03.622Z,3.67
2023-01-31T23:54:05.091Z,3.92
2023-01-31T23:57:06.577Z,4.00
